Time;durP1;ratioP1;P1;durP2;ratioP2;P2;SDS_P1;SDS_P2;PMS_P1;PMS_P2;Temp;Humidity;BMP_temperature;BMP_pressure;BME280_temperature;BME280_humidity;BME280_pressure;Samples;Min_cycle;Max_cycle;Signal;HPM_P1;HPM_P2
2023/03/23 00:01:26;;;;;;;9.82;4.32;;;;;;;10.43;100.00;100251.41;6245620;23;20429;-74
2023/03/23 00:03:53;;;;;;;6.45;3.55;;;;;;;10.43;100.00;100252.22;6246058;23;20012;-73
2023/03/23 00:06:20;;;;;;;7.88;3.70;;;;;;;10.40;100.00;100262.75;6245879;23;20000;-76
2023/03/23 00:08:56;;;;;;;7.80;3.50;;;;;;;10.45;100.00;100268.41;6245703;23;20005;-75
2023/03/23 00:11:26;;;;;;;9.23;3.58;;;;;;;10.44;100.00;100259.03;6245814;23;20012;-77
2023/03/23 00:13:52;;;;;;;7.00;3.78;;;;;;;10.44;100.00;100246.13;6245939;23;20410;-78
2023/03/23 00:16:28;;;;;;;6.70;4.00;;;;;;;10.31;100.00;100220.34;6245963;23;20004;-73
2023/03/23 00:18:55;;;;;;;7.28;3.53;;;;;;;10.41;100.00;100235.16;6245951;23;20085;-74
2023/03/23 00:21:25;;;;;;;7.55;3.80;;;;;;;10.42;100.00;100250.56;6245766;23;20004;-75
2023/03/23 00:23:51;;;;;;;7.97;3.80;;;;;;;10.40;100.00;100265.31;6247130;23;20004;-77
2023/03/23 00:26:17;;;;;;;8.85;3.92;;;;;;;10.40;100.00;100267.91;6248104;23;20012;-77
2023/03/23 00:28:46;;;;;;;6.68;3.72;;;;;;;10.27;100.00;100237.00;6248036;23;20028;-77
2023/03/23 00:31:12;;;;;;;9.45;3.95;;;;;;;10.45;100.00;100258.09;6248061;23;20011;-78
2023/03/23 00:33:40;;;;;;;8.57;3.35;;;;;;;10.47;100.00;100255.41;6247793;23;20007;-73
2023/03/23 00:36:08;;;;;;;9.57;3.50;;;;;;;10.43;100.00;100256.56;6247746;23;20004;-77
2023/03/23 00:38:35;;;;;;;7.45;3.50;;;;;;;10.47;100.00;100263.13;6220822;23;20004;-75
2023/03/23 00:41:03;;;;;;;8.18;3.70;;;;;;;10.45;100.00;100267.59;6247915;22;20337;-73
2023/03/23 00:43:29;;;;;;;7.68;3.75;;;;;;;10.32;100.00;100240.09;6247676;23;20012;-78
2023/03/23 00:45:56;;;;;;;7.50;3.85;;;;;;;10.37;100.00;100244.91;6247927;23;20305;-76
2023/03/23 00:48:23;;;;;;;7.82;4.00;;;;;;;10.49;100.00;100259.50;6248019;23;20008;-74
2023/03/23 00:50:49;;;;;;;6.78;3.55;;;;;;;10.52;100.00;100253.28;6247644;23;20000;-77
2023/03/23 00:53:16;;;;;;;8.55;4.43;;;;;;;10.48;100.00;100252.69;6247444;23;20333;-77
2023/03/23 00:55:46;;;;;;;6.72;3.83;;;;;;;10.55;100.00;100258.25;6247952;23;20007;-76
2023/03/23 00:58:13;;;;;;;10.35;4.57;;;;;;;10.49;100.00;100243.19;6247626;23;20062;-77
2023/03/23 01:00:39;;;;;;;7.90;4.45;;;;;;;10.47;100.00;100225.25;6247379;23;20004;-77
2023/03/23 01:03:11;;;;;;;6.05;3.78;;;;;;;10.36;100.00;100207.13;6247466;23;20027;-77
2023/03/23 01:05:38;;;;;;;7.55;4.65;;;;;;;10.40;100.00;100205.97;6247218;23;20011;-78
2023/03/23 01:08:05;;;;;;;8.23;4.30;;;;;;;10.23;100.00;100177.97;6247353;23;20004;-76
2023/03/23 01:10:38;;;;;;;7.90;4.55;;;;;;;10.32;100.00;100195.34;6247584;23;20000;-77
2023/03/23 01:13:03;;;;;;;7.22;4.43;;;;;;;10.32;100.00;100208.25;6247648;23;20133;-74
2023/03/23 01:15:29;;;;;;;6.25;4.03;;;;;;;10.21;100.00;100196.09;6247587;23;20069;-77
2023/03/23 01:17:55;;;;;;;8.88;5.05;;;;;;;10.29;100.00;100208.50;6247069;23;20517;-77
2023/03/23 01:20:21;;;;;;;8.23;4.88;;;;;;;10.26;100.00;100181.16;6247323;23;20004;-74
2023/03/23 01:22:46;;;;;;;7.38;4.20;;;;;;;10.27;100.00;100174.22;6247765;23;20409;-74
2023/03/23 01:25:13;;;;;;;8.77;4.85;;;;;;;10.19;100.00;100167.00;6247414;23;20108;-76
2023/03/23 01:27:40;;;;;;;6.85;4.55;;;;;;;10.29;100.00;100195.59;6247059;23;20351;-77
2023/03/23 01:30:07;;;;;;;6.95;4.40;;;;;;;10.28;100.00;100189.59;6247355;23;20064;-75
2023/03/23 01:32:33;;;;;;;8.15;4.72;;;;;;;10.28;100.00;100166.38;6247355;23;20068;-75
2023/03/23 01:34:58;;;;;;;8.73;4.90;;;;;;;10.27;100.00;100180.22;6246977;23;20451;-76
2023/03/23 01:37:26;;;;;;;10.32;4.85;;;;;;;10.29;100.00;100178.34;6247266;23;20019;-73
2023/03/23 01:39:55;;;;;;;7.30;4.50;;;;;;;10.16;100.00;100151.75;6247348;23;20083;-76
2023/03/23 01:42:29;;;;;;;8.48;5.13;;;;;;;10.32;100.00;100174.72;6246864;22;20057;-75
2023/03/23 01:44:54;;;;;;;8.48;5.00;;;;;;;10.36;100.00;100173.56;6247089;23;20087;-75
2023/03/23 01:47:23;;;;;;;8.15;4.55;;;;;;;10.27;100.00;100148.44;6219733;23;20039;-74
2023/03/23 01:49:49;;;;;;;8.13;5.18;;;;;;;10.32;100.00;100159.22;6246845;23;20028;-77
2023/03/23 01:52:23;;;;;;;6.70;4.38;;;;;;;10.26;100.00;100151.94;6247354;23;20000;-76
2023/03/23 01:54:52;;;;;;;7.63;4.70;;;;;;;10.44;100.00;100171.25;6247035;23;20008;-75
2023/03/23 01:57:21;;;;;;;6.63;4.65;;;;;;;10.52;100.00;100161.22;6247390;23;20057;-74
2023/03/23 01:59:51;;;;;;;7.20;4.35;;;;;;;10.41;100.00;100135.34;6246870;23;20441;-75
2023/03/23 02:02:17;;;;;;;7.18;4.35;;;;;;;10.53;100.00;100165.44;6246677;23;20413;-75
2023/03/23 02:04:44;;;;;;;9.20;4.90;;;;;;;10.45;100.00;100136.78;6247143;23;20011;-78
2023/03/23 02:07:11;;;;;;;7.72;4.32;;;;;;;10.58;100.00;100152.16;6247219;23;20329;-74
2023/03/23 02:09:36;;;;;;;6.93;4.45;;;;;;;10.61;100.00;100145.00;6246863;23;20020;-77
2023/03/23 02:12:02;;;;;;;14.18;4.57;;;;;;;10.64;100.00;100141.41;6247047;23;20410;-78
2023/03/23 02:14:28;;;;;;;7.13;4.40;;;;;;;10.60;100.00;100129.63;6246896;23;20456;-77
2023/03/23 02:17:21;;;;;;;9.57;4.60;;;;;;;10.65;100.00;100124.97;6246920;23;20027;-78
2023/03/23 02:19:52;;;;;;;7.00;4.30;;;;;;;10.62;100.00;100133.78;6247257;23;20000;-74
2023/03/23 02:22:51;;;;;;;8.65;4.57;;;;;;;10.63;100.00;100126.84;6246996;23;20031;-75
2023/03/23 02:25:24;;;;;;;6.43;4.35;;;;;;;10.52;100.00;100122.47;6246727;23;20004;-73
2023/03/23 02:28:24;;;;;;;9.98;5.57;;;;;;;10.62;100.00;100130.38;6246729;23;20012;-76
2023/03/23 02:31:28;;;;;;;6.70;4.20;;;;;;;10.60;100.00;100135.63;6246595;23;20066;-74
2023/03/23 02:34:02;;;;;;;8.35;4.50;;;;;;;10.60;100.00;100133.03;6219454;23;20086;-76
2023/03/23 02:36:33;;;;;;;6.78;4.30;;;;;;;10.63;100.00;100137.19;6246905;23;20083;-77
2023/03/23 02:39:10;;;;;;;6.57;4.07;;;;;;;10.69;100.00;100139.28;6246534;23;20441;-75
2023/03/23 02:41:58;;;;;;;6.32;3.85;;;;;;;10.66;100.00;100118.03;6246512;22;20070;-78
2023/03/23 02:44:29;;;;;;;6.78;4.05;;;;;;;10.58;100.00;100097.94;6246669;23;20303;-77
2023/03/23 02:46:56;;;;;;;;;;;;;;;10.77;100.00;100123.22;6246881;23;20011;-75
2023/03/23 02:49:24;;;;;;;8.38;4.53;;;;;;;10.82;100.00;100136.63;6246001;23;19911;-76
2023/03/23 02:51:50;;;;;;;6.90;4.32;;;;;;;10.85;100.00;100134.63;6246720;23;20087;-76
2023/03/23 02:54:18;;;;;;;6.20;4.05;;;;;;;10.86;100.00;100136.28;6246820;23;20008;-75
2023/03/23 02:56:44;;;;;;;9.48;4.25;;;;;;;10.74;100.00;100108.78;6246541;23;20350;-74
2023/03/23 02:59:10;;;;;;;7.25;4.22;;;;;;;10.90;100.00;100119.59;6246307;23;20004;-77
2023/03/23 03:01:38;;;;;;;6.00;4.07;;;;;;;10.92;100.00;100129.84;6246812;23;20027;-77
2023/03/23 03:04:08;;;;;;;9.00;4.43;;;;;;;10.71;100.00;100093.50;6246317;23;20004;-77
2023/03/23 03:06:44;;;;;;;7.20;4.45;;;;;;;10.93;100.00;100128.91;6246319;23;20083;-76
2023/03/23 03:09:43;;;;;;;10.27;4.63;;;;;;;10.90;100.00;100124.75;6246219;23;20008;-78
2023/03/23 03:12:15;;;;;;;8.20;3.85;;;;;;;10.91;100.00;100123.84;6246259;23;20029;-77
2023/03/23 03:15:20;;;;;;;6.80;4.28;;;;;;;10.82;100.00;100115.97;6246454;23;20004;-77
2023/03/23 03:17:56;;;;;;;7.05;4.22;;;;;;;10.97;100.00;100138.03;6246551;23;20006;-77
2023/03/23 03:20:26;;;;;;;8.65;4.55;;;;;;;10.94;100.00;100129.72;6246510;23;20000;-78
2023/03/23 03:22:52;;;;;;;7.20;4.18;;;;;;;11.00;100.00;100137.81;6246297;23;20075;-78
2023/03/23 03:25:19;;;;;;;5.93;4.30;;;;;;;11.03;100.00;100136.78;6218421;23;20414;-77
2023/03/23 03:27:49;;;;;;;6.60;4.38;;;;;;;11.06;100.00;100134.78;6246071;23;20008;-75
2023/03/23 03:30:20;;;;;;;7.65;4.82;;;;;;;11.02;100.00;100128.19;6246185;23;20004;-77
2023/03/23 03:32:50;;;;;;;6.65;4.32;;;;;;;10.93;100.00;100102.25;6246405;23;20004;-75
2023/03/23 03:35:18;;;;;;;7.17;4.07;;;;;;;11.08;100.00;100127.72;6246267;23;20028;-77
2023/03/23 03:37:44;;;;;;;7.20;4.32;;;;;;;11.08;100.00;100134.66;6246131;23;20254;-74
2023/03/23 03:40:16;;;;;;;7.93;3.83;;;;;;;10.92;100.00;100109.16;6246170;23;20047;-77
2023/03/23 03:42:44;;;;;;;7.45;4.13;;;;;;;11.03;100.00;100132.44;6245773;22;20146;-77
2023/03/23 03:45:13;;;;;;;8.18;4.00;;;;;;;10.95;100.00;100127.00;6245817;23;20091;-77
2023/03/23 03:47:38;;;;;;;6.60;4.40;;;;;;;11.04;100.00;100139.25;6245985;23;20036;-77
2023/03/23 03:50:05;;;;;;;6.65;4.10;;;;;;;11.07;100.00;100141.56;6218799;23;20012;-77
2023/03/23 03:52:31;;;;;;;7.10;3.80;;;;;;;11.03;100.00;100124.69;6246285;23;20011;-77
2023/03/23 03:54:57;;;;;;;6.70;4.28;;;;;;;11.09;100.00;100134.53;6245638;23;20007;-77
2023/03/23 03:57:22;;;;;;;7.10;3.72;;;;;;;10.99;100.00;100128.41;6246289;23;20004;-77
2023/03/23 03:59:48;;;;;;;8.63;3.78;;;;;;;10.98;100.00;100124.19;6245937;23;20019;-76
2023/03/23 04:02:16;;;;;;;8.48;4.00;;;;;;;11.08;100.00;100150.97;6246095;23;20358;-74
2023/03/23 04:04:43;;;;;;;7.30;3.45;;;;;;;11.10;100.00;100146.50;6245630;23;20001;-77
2023/03/23 04:07:10;;;;;;;9.50;3.33;;;;;;;11.03;100.00;100129.84;6245798;23;20083;-76
2023/03/23 04:09:36;;;;;;;7.13;3.47;;;;;;;11.12;100.00;100144.66;6245894;23;20023;-77
2023/03/23 04:12:02;;;;;;;6.80;3.28;;;;;;;11.10;100.00;100141.34;6245943;23;20000;-77
2023/03/23 04:14:27;;;;;;;7.28;3.10;;;;;;;10.86;100.00;100099.28;6246008;23;20087;-77
2023/03/23 04:16:56;;;;;;;6.68;2.75;;;;;;;11.11;100.00;100140.44;6246457;23;20004;-74
2023/03/23 04:19:24;;;;;;;8.07;3.03;;;;;;;11.12;100.00;100144.66;6218370;23;20008;-78
2023/03/23 04:21:50;;;;;;;9.88;3.08;;;;;;;10.88;100.00;100105.16;6245772;23;20027;-76
2023/03/23 04:24:16;;;;;;;7.70;2.67;;;;;;;11.11;100.00;100145.59;6245791;23;20004;-77
2023/03/23 04:26:41;;;;;;;6.80;2.65;;;;;;;11.09;100.00;100150.03;6245999;23;20004;-73
2023/03/23 04:29:08;;;;;;;6.40;2.58;;;;;;;11.09;100.00;100156.97;6245820;23;20039;-76
2023/03/23 04:31:34;;;;;;;8.88;2.33;;;;;;;11.06;100.00;100149.44;6245977;23;20027;-76
2023/03/23 04:34:01;;;;;;;7.18;2.80;;;;;;;11.10;100.00;100164.59;6246072;23;20032;-77
2023/03/23 04:36:28;;;;;;;7.28;2.55;;;;;;;11.08;100.00;100161.31;6245552;23;20004;-77
2023/03/23 04:38:54;;;;;;;7.50;2.47;;;;;;;11.12;99.31;100159.34;6245977;23;20027;-78
2023/03/23 04:41:20;;;;;;;9.45;2.72;;;;;;;11.12;99.13;100165.31;6245868;22;20035;-77
2023/03/23 04:43:45;;;;;;;8.65;2.72;;;;;;;11.11;100.00;100179.19;6246066;23;20418;-74
2023/03/23 04:46:11;;;;;;;10.13;2.58;;;;;;;11.10;99.28;100171.53;6245812;23;20000;-76
2023/03/23 04:48:38;;;;;;;10.65;2.63;;;;;;;10.86;99.83;100143.19;6246000;23;20058;-75
2023/03/23 04:51:05;;;;;;;6.68;2.30;;;;;;;11.13;99.81;100173.91;6245431;23;20366;-76
2023/03/23 04:53:31;;;;;;;6.80;2.20;;;;;;;11.00;99.43;100155.88;6245638;23;20126;-77
2023/03/23 04:55:57;;;;;;;5.80;1.88;;;;;;;11.06;99.84;100178.69;6218743;23;20012;-74
2023/03/23 04:58:24;;;;;;;8.05;2.30;;;;;;;11.03;100.00;100173.75;6246039;23;20011;-74
2023/03/23 05:00:49;;;;;;;7.70;2.05;;;;;;;10.95;100.00;100154.59;6245497;23;20002;-77
2023/03/23 05:03:18;;;;;;;5.43;1.98;;;;;;;10.99;100.00;100174.09;6246078;23;20028;-76
2023/03/23 05:05:46;;;;;;;6.78;2.00;;;;;;;10.99;99.72;100174.09;6245086;23;20436;-78
2023/03/23 05:08:15;;;;;;;6.07;2.20;;;;;;;10.95;100.00;100172.69;6245547;23;20009;-74
2023/03/23 05:10:41;;;;;;;9.23;2.00;;;;;;;10.93;100.00;100166.81;6247767;23;20004;-77
2023/03/23 05:13:06;;;;;;;8.95;2.25;;;;;;;10.99;99.81;100166.34;6220727;23;20022;-74
2023/03/23 05:15:32;;;;;;;7.90;2.10;;;;;;;10.98;99.68;100168.09;6247507;23;20008;-78
2023/03/23 05:17:57;;;;;;;9.23;2.25;;;;;;;10.96;99.86;100169.16;6247788;23;20001;-74
2023/03/23 05:20:22;;;;;;;9.38;1.98;;;;;;;10.94;100.00;100177.03;6246999;23;20031;-76
2023/03/23 05:22:49;;;;;;;6.93;2.05;;;;;;;10.89;99.90;100171.38;6219698;23;20008;-75
2023/03/23 05:25:18;;;;;;;7.47;2.03;;;;;;;10.89;100.00;100169.63;6247202;23;20003;-73
2023/03/23 05:27:48;;;;;;;6.35;2.10;;;;;;;10.90;100.00;100180.75;6247267;23;20048;-77
2023/03/23 05:30:18;;;;;;;4.60;1.90;;;;;;;10.88;100.00;100177.47;6247096;23;19996;-77
2023/03/23 05:32:44;;;;;;;9.60;2.30;;;;;;;10.85;100.00;100170.78;6247113;23;20000;-76
2023/03/23 05:35:11;;;;;;;6.18;1.80;;;;;;;10.85;100.00;100181.13;6247007;23;20004;-77
2023/03/23 05:37:40;;;;;;;7.63;2.33;;;;;;;10.85;100.00;100180.31;6247159;23;20375;-75
2023/03/23 05:40:06;;;;;;;9.32;1.75;;;;;;;10.76;100.00;100163.72;6247040;23;20034;-73
2023/03/23 05:42:35;;;;;;;7.13;1.83;;;;;;;10.87;100.00;100186.16;6246843;22;20036;-73
2023/03/23 05:45:04;;;;;;;6.00;2.15;;;;;;;10.78;100.00;100161.84;6247380;23;20059;-74
2023/03/23 05:47:30;;;;;;;6.18;1.90;;;;;;;10.85;100.00;100177.72;6246712;23;20436;-72
2023/03/23 05:49:56;;;;;;;8.77;2.22;;;;;;;10.73;100.00;100163.16;6247059;23;20001;-74
2023/03/23 05:52:23;;;;;;;4.82;1.83;;;;;;;10.85;100.00;100180.31;6246728;23;20436;-73
2023/03/23 05:54:49;;;;;;;7.47;1.88;;;;;;;10.85;100.00;100185.47;6246822;23;20429;-73
2023/03/23 05:57:14;;;;;;;4.47;1.60;;;;;;;10.85;100.00;100182.88;6247074;23;20008;-73
2023/03/23 05:59:40;;;;;;;9.35;2.10;;;;;;;10.81;100.00;100184.03;6247285;23;20444;-74
2023/03/23 06:02:05;;;;;;;8.07;1.77;;;;;;;10.85;100.00;100190.63;6246699;23;20004;-73
2023/03/23 06:04:33;;;;;;;9.13;2.20;;;;;;;10.71;100.00;100176.13;6246986;23;20058;-73
2023/03/23 06:07:00;;;;;;;10.73;2.63;;;;;;;10.81;100.00;100186.63;6246725;23;20011;-72
2023/03/23 06:09:26;;;;;;;8.68;2.30;;;;;;;10.83;100.00;100195.09;6246750;23;20008;-73
2023/03/23 06:11:51;;;;;;;5.30;1.88;;;;;;;10.84;100.00;100197.56;6246638;23;20447;-72
2023/03/23 06:14:17;;;;;;;6.60;2.15;;;;;;;10.62;100.00;100161.34;6246993;23;20038;-73
2023/03/23 06:16:43;;;;;;;16.88;2.47;;;;;;;10.89;100.00;100197.22;6246779;23;20425;-73
2023/03/23 06:19:08;;;;;;;8.02;2.25;;;;;;;10.91;100.00;100206.50;6246821;23;20008;-73
2023/03/23 06:21:34;;;;;;;10.70;2.55;;;;;;;10.93;100.00;100214.16;6245996;22;20338;-77
2023/03/23 06:23:59;;;;;;;5.90;2.10;;;;;;;10.96;100.00;100215.66;6246635;23;20004;-75
2023/03/23 06:26:32;;;;;;;7.47;1.98;;;;;;;10.97;100.00;100225.88;6247022;23;20000;-73
2023/03/23 06:28:57;;;;;;;8.52;2.03;;;;;;;11.00;99.44;100235.97;6246436;23;20004;-73
2023/03/23 06:31:24;;;;;;;12.90;2.45;;;;;;;10.98;99.11;100229.28;6246545;23;20000;-78
2023/03/23 06:33:50;;;;;;;7.78;2.10;;;;;;;10.86;99.06;100206.00;6246671;23;20075;-73
2023/03/23 06:36:15;;;;;;;7.70;2.10;;;;;;;10.93;98.92;100221.88;6219542;23;20078;-73
2023/03/23 06:38:40;;;;;;;8.50;2.40;;;;;;;10.99;98.35;100229.16;6218919;23;20094;-74
2023/03/23 06:41:06;;;;;;;6.55;1.90;;;;;;;11.03;98.66;100237.53;6246454;22;20325;-74
2023/03/23 06:43:31;;;;;;;9.43;2.55;;;;;;;11.09;99.16;100253.38;6218620;23;20032;-75
2023/03/23 06:46:00;;;;;;;9.88;2.53;;;;;;;11.01;99.48;100239.38;6246813;23;20000;-74
2023/03/23 06:48:26;;;;;;;12.88;3.05;;;;;;;10.88;99.36;100229.16;6246292;23;20087;-74
2023/03/23 06:50:52;;;;;;;7.85;2.80;;;;;;;11.00;100.00;100263.56;6246635;23;20011;-74
2023/03/23 06:53:17;;;;;;;7.38;1.77;;;;;;;10.94;100.00;100264.88;6245924;23;20008;-75
2023/03/23 06:55:44;;;;;;;10.90;2.65;;;;;;;10.67;100.00;100226.38;6246467;23;20433;-75
2023/03/23 06:58:10;;;;;;;7.30;2.22;;;;;;;10.85;100.00;100268.13;6246189;23;20054;-73
2023/03/23 07:00:35;;;;;;;8.48;2.28;;;;;;;10.83;100.00;100277.75;6246712;23;20049;-73
2023/03/23 07:03:01;;;;;;;7.93;1.90;;;;;;;10.80;100.00;100283.13;6246650;23;20414;-75
2023/03/23 07:05:26;;;;;;;8.15;2.92;;;;;;;10.69;100.00;100280.50;6246335;23;20369;-73
2023/03/23 07:07:52;;;;;;;9.02;2.33;;;;;;;10.53;100.00;100285.94;6246211;23;20004;-73
2023/03/23 07:10:17;;;;;;;8.45;2.30;;;;;;;10.44;100.00;100290.00;6217990;23;20012;-73
2023/03/23 07:12:43;;;;;;;8.95;2.47;;;;;;;10.27;100.00;100269.72;6246692;23;20000;-74
2023/03/23 07:15:10;;;;;;;14.35;2.95;;;;;;;10.28;100.00;100284.25;6246565;23;20503;-74
2023/03/23 07:17:39;;;;;;;9.07;2.50;;;;;;;10.11;100.00;100266.53;6246056;23;20004;-77
2023/03/23 07:20:06;;;;;;;9.25;2.53;;;;;;;10.07;100.00;100278.81;6244525;23;20031;-74
2023/03/23 07:22:31;;;;;;;7.47;3.10;;;;;;;10.12;100.00;100283.66;6245783;23;20074;-72
2023/03/23 07:24:57;;;;;;;9.52;2.75;;;;;;;10.18;100.00;100296.94;6246135;23;20038;-74
2023/03/23 07:27:22;;;;;;;6.22;2.20;;;;;;;10.24;100.00;100294.00;6246691;23;20054;-74
2023/03/23 07:29:48;;;;;;;8.60;2.25;;;;;;;10.30;100.00;100292.72;6246200;23;20012;-74
2023/03/23 07:32:13;;;;;;;8.13;2.30;;;;;;;10.39;100.00;100284.31;6245815;23;20019;-75
2023/03/23 07:34:39;;;;;;;8.30;2.17;;;;;;;10.48;100.00;100286.25;6245941;23;20005;-71
2023/03/23 07:37:05;;;;;;;8.30;1.90;;;;;;;10.50;100.00;100280.97;6245350;23;20004;-74
2023/03/23 07:39:31;;;;;;;4.80;1.55;;;;;;;10.44;100.00;100289.19;6245407;23;20015;-72
2023/03/23 07:41:56;;;;;;;4.78;1.60;;;;;;;10.33;100.00;100305.44;6245545;22;20008;-73
2023/03/23 07:44:22;;;;;;;7.13;1.30;;;;;;;9.99;100.00;100289.66;6245838;23;20004;-76
2023/03/23 07:46:47;;;;;;;3.63;1.23;;;;;;;9.78;100.00;100281.66;6245736;23;20004;-73
2023/03/23 07:49:13;;;;;;;4.25;1.20;;;;;;;9.81;100.00;100300.41;6245923;23;20004;-73
2023/03/23 07:51:39;;;;;;;3.90;1.13;;;;;;;9.69;100.00;100312.38;6245891;23;20000;-75
2023/03/23 07:54:07;;;;;;;2.35;0.90;;;;;;;9.42;100.00;100284.13;6245466;23;20079;-75
2023/03/23 07:56:33;;;;;;;3.08;0.98;;;;;;;9.54;100.00;100321.13;6245359;23;20000;-75
2023/03/23 07:59:02;;;;;;;2.53;1.00;;;;;;;9.49;100.00;100319.69;6245687;23;20084;-76
2023/03/23 08:01:27;;;;;;;3.55;1.00;;;;;;;9.44;100.00;100319.19;6245845;23;20027;-76
2023/03/23 08:03:54;;;;;;;2.58;0.90;;;;;;;9.28;100.00;100299.69;6245840;23;20038;-74
2023/03/23 08:06:21;;;;;;;4.38;1.05;;;;;;;9.40;100.00;100328.03;6246009;23;20000;-75
2023/03/23 08:08:46;;;;;;;2.90;0.93;;;;;;;9.23;100.00;100307.69;6245203;23;20337;-75
2023/03/23 08:11:13;;;;;;;3.67;1.02;;;;;;;9.37;100.00;100330.00;6245821;23;20026;-77
2023/03/23 08:13:39;;;;;;;4.00;1.20;;;;;;;9.40;100.00;100328.03;6245725;23;20007;-74
2023/03/23 08:16:04;;;;;;;4.40;1.35;;;;;;;9.54;100.00;100345.19;6245593;23;20004;-76
2023/03/23 08:18:31;;;;;;;4.22;1.13;;;;;;;9.63;100.00;100329.06;6246094;23;20004;-77
2023/03/23 08:20:57;;;;;;;3.90;1.17;;;;;;;9.84;100.00;100346.66;6245135;23;20067;-74
2023/03/23 08:23:22;;;;;;;2.70;1.15;;;;;;;10.05;100.00;100351.16;6245334;23;20087;-74
2023/03/23 08:25:48;;;;;;;6.50;1.40;;;;;;;10.19;100.00;100342.47;6245889;23;20007;-76
2023/03/23 08:28:14;;;;;;;5.30;1.73;;;;;;;10.34;100.00;100349.19;6245544;23;20372;-76
2023/03/23 08:30:40;;;;;;;3.25;1.30;;;;;;;10.26;100.00;100348.06;6245708;23;20043;-76
2023/03/23 08:33:06;;;;;;;4.90;1.25;;;;;;;10.12;100.00;100330.09;6245900;23;20004;-75
2023/03/23 08:35:32;;;;;;;11.20;1.85;;;;;;;10.16;100.00;100331.53;6217947;23;20062;-76
2023/03/23 08:37:58;;;;;;;4.85;1.48;;;;;;;10.07;100.00;100317.50;6245300;23;20004;-78
2023/03/23 08:40:24;;;;;;;4.70;1.10;;;;;;;10.05;100.00;100307.31;6245147;23;20012;-77
2023/03/23 08:42:51;;;;;;;7.25;1.75;;;;;;;10.32;100.00;100343.31;6245517;22;20437;-78
2023/03/23 08:45:22;;;;;;;5.53;1.58;;;;;;;10.46;100.00;100344.09;6247750;23;20495;-77
2023/03/23 08:47:51;;;;;;;5.32;1.23;;;;;;;10.67;100.00;100349.50;6247995;23;20007;-81
2023/03/23 08:50:19;;;;;;;6.05;1.38;;;;;;;10.57;100.00;100313.19;6247930;23;20422;-81
2023/03/23 08:52:45;;;;;;;4.68;1.50;;;;;;;10.80;100.00;100356.25;6247830;23;20000;-79
2023/03/23 08:55:12;;;;;;;7.40;1.55;;;;;;;10.53;100.00;100338.41;6247727;23;20012;-78
2023/03/23 08:57:42;;;;;;;4.75;1.17;;;;;;;10.52;100.00;100334.19;6247895;23;20004;-75
2023/03/23 09:02:48;;;;;;;3.88;1.33;;;;;;;10.00;100.00;100229.41;6266639;22;20023;-77
2023/03/23 09:05:16;;;;;;;5.65;1.33;;;;;;;10.94;100.00;100375.94;6247287;23;20458;-79
2023/03/23 09:07:43;;;;;;;4.15;1.10;;;;;;;11.01;100.00;100374.59;6247296;23;20338;-78
2023/03/23 09:10:10;;;;;;;4.93;1.30;;;;;;;11.20;100.00;100376.63;6247670;23;20008;-77
2023/03/23 09:12:36;;;;;;;3.72;1.08;;;;;;;11.22;99.26;100340.38;6247625;23;20008;-80
2023/03/23 09:15:08;;;;;;;4.60;1.42;;;;;;;11.24;98.48;100313.47;6247751;23;20011;-78
2023/03/23 09:17:35;;;;;;;6.07;1.30;;;;;;;11.66;95.23;100349.97;6247673;23;20008;-80
2023/03/23 09:20:00;;;;;;;3.28;1.13;;;;;;;11.42;95.29;100352.66;6247592;23;20000;-77
2023/03/23 09:22:25;;;;;;;5.50;1.75;;;;;;;11.16;97.19;100347.63;6247521;23;20058;-76
2023/03/23 09:24:51;;;;;;;5.18;1.20;;;;;;;10.81;99.32;100336.41;6247264;23;19996;-78
2023/03/23 09:27:17;;;;;;;8.18;1.27;;;;;;;10.65;100.00;100339.28;6247096;23;20341;-74
2023/03/23 09:29:44;;;;;;;5.47;1.70;;;;;;;10.69;100.00;100363.94;6247444;23;20027;-74
2023/03/23 09:32:09;;;;;;;4.43;1.35;;;;;;;10.65;100.00;100365.09;6247165;23;20011;-74
2023/03/23 09:34:35;;;;;;;6.25;1.30;;;;;;;10.68;100.00;100362.28;6220235;23;20008;-75
2023/03/23 09:37:04;;;;;;;7.05;1.55;;;;;;;10.53;100.00;100340.16;6247470;23;20373;-73
2023/03/23 09:39:30;;;;;;;7.35;1.60;;;;;;;10.83;100.00;100368.16;6247183;23;20050;-76
2023/03/23 09:42:28;;;;;;;5.65;1.63;;;;;;;10.85;100.00;100376.59;6247306;23;20012;-76
2023/03/23 09:45:09;;;;;;;4.38;1.90;;;;;;;10.88;100.00;100377.19;6247138;23;20038;-75
2023/03/23 09:48:06;;;;;;;5.65;1.63;;;;;;;10.96;100.00;100383.59;6246926;23;20008;-76
2023/03/23 09:50:34;;;;;;;5.55;1.60;;;;;;;10.82;100.00;100351.00;6245459;23;20008;-74
2023/03/23 09:53:12;;;;;;;7.40;1.65;;;;;;;11.02;100.00;100380.56;6220166;23;20008;-77
2023/03/23 09:55:37;;;;;;;9.32;1.90;;;;;;;11.03;100.00;100375.28;6246817;23;20004;-76
2023/03/23 09:58:23;;;;;;;8.07;1.80;;;;;;;11.16;100.00;100382.97;6246691;23;20130;-78
2023/03/23 10:01:00;;;;;;;5.30;1.63;;;;;;;11.13;100.00;100368.53;6247004;23;20023;-74
2023/03/23 10:03:31;;;;;;;5.93;1.88;;;;;;;11.29;100.00;100398.41;6220112;23;20016;-74
2023/03/23 10:05:57;;;;;;;7.32;2.00;;;;;;;11.28;100.00;100391.59;6246817;23;20008;-78
2023/03/23 10:08:27;;;;;;;8.43;2.13;;;;;;;11.40;100.00;100380.34;6246756;23;20012;-79
2023/03/23 10:11:22;;;;;;;8.20;1.90;;;;;;;11.54;99.83;100400.88;6246824;23;20004;-78
2023/03/23 10:13:59;;;;;;;8.13;1.50;;;;;;;11.72;100.00;100406.44;6153831;23;20045;-77
2023/03/23 10:16:28;;;;;;;6.20;2.00;;;;;;;11.84;97.97;100404.72;6154202;23;20020;-78
2023/03/23 10:19:27;;;;;;;6.13;1.77;;;;;;;11.89;94.36;100402.59;6154064;23;20321;-75
2023/03/23 10:21:59;;;;;;;7.38;1.48;;;;;;;11.81;94.34;100397.22;6154315;23;20009;-76
2023/03/23 10:24:52;;;;;;;7.10;1.90;;;;;;;12.12;96.82;100386.19;6154026;23;20626;-77
2023/03/23 10:27:33;;;;;;;5.55;1.80;;;;;;;12.64;93.33;100371.78;6153887;23;20006;-76
2023/03/23 10:30:13;;;;;;;5.97;2.00;;;;;;;13.16;92.00;100396.94;6153965;23;20005;-77
2023/03/23 10:32:44;;;;;;;7.80;2.77;;;;;;;12.90;89.08;100391.28;6154098;23;20075;-77
2023/03/23 10:35:17;;;;;;;5.10;1.95;;;;;;;13.02;90.19;100412.78;6154160;23;20005;-76
2023/03/23 10:37:52;;;;;;;8.30;2.38;;;;;;;12.45;88.65;100328.34;6153917;23;20009;-76
2023/03/23 10:40:23;;;;;;;5.80;2.25;;;;;;;12.84;87.44;100375.38;6153696;23;20432;-77
2023/03/23 10:42:51;;;;;;;6.22;2.30;;;;;;;13.16;86.08;100427.22;6153813;23;20005;-76
2023/03/23 10:45:22;;;;;;;7.25;2.20;;;;;;;13.30;86.18;100419.22;6153905;23;20009;-75
2023/03/23 10:48:09;;;;;;;7.32;2.50;;;;;;;13.32;83.93;100419.09;6153869;23;20014;-74
2023/03/23 10:50:40;;;;;;;8.68;2.20;;;;;;;13.37;85.24;100409.16;6196912;23;20008;-76
2023/03/23 10:53:23;;;;;;;7.20;2.38;;;;;;;13.70;87.70;100410.75;6246709;23;20038;-72
2023/03/23 10:55:49;;;;;;;7.00;2.60;;;;;;;14.09;87.09;100385.84;6246441;23;20008;-79
2023/03/23 10:58:35;;;;;;;7.10;2.45;;;;;;;14.16;82.47;100401.72;6246508;23;20004;-75
2023/03/23 11:01:03;;;;;;;7.00;2.35;;;;;;;13.74;82.67;100401.75;6246781;23;20368;-74
2023/03/23 11:03:42;;;;;;;4.93;2.15;;;;;;;13.47;84.77;100378.94;6246502;23;20338;-78
2023/03/23 11:06:30;;;;;;;9.57;2.38;;;;;;;13.71;86.02;100397.66;6244580;23;20012;-74
2023/03/23 11:08:58;;;;;;;7.47;2.30;;;;;;;13.70;83.64;100370.06;6218475;23;20012;-76
2023/03/23 11:11:28;;;;;;;7.88;2.70;;;;;;;14.06;81.88;100399.91;6246387;23;20004;-75
2023/03/23 11:14:42;;;;;;;6.43;2.22;;;;;;;14.03;80.79;100407.94;6246170;23;20003;-75
2023/03/23 11:17:21;;;;;;;7.25;2.20;;;;;;;13.91;81.03;100370.03;6240981;23;20085;-77
2023/03/23 11:19:47;;;;;;;6.15;2.35;;;;;;;14.20;81.35;100397.91;6246140;23;20011;-75
2023/03/23 11:22:19;;;;;;;7.53;1.95;;;;;;;14.00;79.96;100384.84;6246059;23;20003;-75
2023/03/23 11:24:47;;;;;;;5.32;1.88;;;;;;;14.00;80.55;100410.81;6246141;23;20468;-75
2023/03/23 11:27:14;;;;;;;8.07;2.40;;;;;;;13.85;80.39;100380.94;6245976;23;20007;-73
2023/03/23 11:29:51;;;;;;;5.70;2.13;;;;;;;14.09;81.94;100411.00;6245975;23;20008;-76
2023/03/23 11:32:17;;;;;;;8.15;1.95;;;;;;;14.13;80.29;100404.56;6246330;23;20004;-74